createdAt,value
2023-05-06T00:02:13.060Z,100356.09
2023-05-06T00:07:14.277Z,100357.44
2023-05-06T00:12:15.482Z,100357.72
2023-05-06T00:17:16.751Z,100349.06
2023-05-06T00:22:18.016Z,100349.28
2023-05-06T00:27:19.169Z,100340.13
2023-05-06T00:32:20.571Z,100337.00
2023-05-06T00:37:21.806Z,100334.88
2023-05-06T00:42:23.240Z,100329.19
2023-05-06T00:47:24.621Z,100333.09
2023-05-06T00:52:26.181Z,100329.19
2023-05-06T00:57:27.656Z,100327.94
2023-05-06T01:02:43.292Z,100329.78
2023-05-06T01:07:47.409Z,100327.66
2023-05-06T01:12:49.203Z,100325.22
2023-05-06T01:17:51.128Z,100319.56
2023-05-06T01:22:52.362Z,100325.50
2023-05-06T01:27:53.520Z,100338.06
2023-05-06T01:32:54.887Z,100339.00
2023-05-06T01:37:56.112Z,100296.88
2023-05-06T01:42:57.282Z,100331.50
2023-05-06T01:47:58.513Z,100336.63
2023-05-06T01:53:00.288Z,100334.00
2023-05-06T01:58:02.503Z,100335.63
2023-05-06T02:03:03.762Z,100332.59
2023-05-06T02:08:05.013Z,100338.22
2023-05-06T02:13:06.182Z,100337.59
2023-05-06T02:18:07.486Z,100344.19
2023-05-06T02:23:08.778Z,100337.16
2023-05-06T02:28:10.306Z,100335.22
2023-05-06T02:33:11.514Z,100329.72
2023-05-06T02:38:12.656Z,100325.84
2023-05-06T02:43:13.827Z,100331.66
2023-05-06T02:48:15.225Z,100318.59
2023-05-06T02:53:16.434Z,100320.53
2023-05-06T02:58:17.648Z,100311.34
2023-05-06T03:03:18.803Z,100315.63
2023-05-06T03:08:19.939Z,100325.59
2023-05-06T03:13:21.276Z,100326.47
2023-05-06T03:18:22.531Z,100327.59
2023-05-06T03:23:23.706Z,100316.88
2023-05-06T03:28:24.872Z,100326.59
2023-05-06T03:33:26.067Z,100337.09
2023-05-06T03:38:27.326Z,100337.44
2023-05-06T03:43:28.553Z,100334.31
2023-05-06T03:48:29.794Z,100328.00
2023-05-06T03:53:30.995Z,100333.19
2023-05-06T03:58:32.141Z,100332.63
2023-05-06T04:03:33.462Z,100327.38
2023-05-06T04:08:34.740Z,100334.47
2023-05-06T04:13:35.887Z,100332.19
2023-05-06T04:18:37.530Z,100327.78
2023-05-06T04:23:38.724Z,100325.88
2023-05-06T04:28:39.997Z,100337.88
2023-05-06T04:33:41.537Z,100342.56
2023-05-06T04:38:42.702Z,100346.78
2023-05-06T04:43:43.931Z,100361.00
2023-05-06T04:48:45.080Z,100358.31
2023-05-06T04:53:46.741Z,100364.81
2023-05-06T04:58:47.969Z,100369.78
2023-05-06T05:03:49.621Z,100363.69
2023-05-06T05:08:50.950Z,100380.66
2023-05-06T05:13:52.465Z,100377.69
2023-05-06T05:18:54.557Z,100387.28
2023-05-06T05:23:55.747Z,100388.69
2023-05-06T05:28:56.899Z,100392.75
2023-05-06T05:33:58.132Z,100388.41
2023-05-06T05:38:59.376Z,100397.69
2023-05-06T05:44:00.592Z,100395.97
2023-05-06T05:49:01.849Z,100389.69
2023-05-06T05:54:03.082Z,100402.59
2023-05-06T05:59:04.222Z,100404.19
2023-05-06T06:04:05.718Z,100403.44
2023-05-06T06:09:07.172Z,100408.50
2023-05-06T06:14:08.361Z,100398.09
2023-05-06T06:19:09.543Z,100401.28
2023-05-06T06:24:10.731Z,100403.56
2023-05-06T06:29:12.287Z,100406.78
2023-05-06T06:34:13.570Z,100414.50
2023-05-06T06:39:14.757Z,100414.56
2023-05-06T06:44:15.916Z,100415.94
2023-05-06T06:49:17.316Z,100418.06
2023-05-06T06:54:18.520Z,100414.63
2023-05-06T06:59:19.900Z,100411.94
2023-05-06T07:04:21.173Z,100419.91
2023-05-06T07:09:22.465Z,100419.34
2023-05-06T07:14:25.654Z,100413.84
2023-05-06T07:19:26.901Z,100419.22
2023-05-06T07:24:28.088Z,100420.41
2023-05-06T07:29:29.337Z,100418.50
2023-05-06T07:34:30.797Z,100429.31
2023-05-06T07:39:32.311Z,100435.25
2023-05-06T07:44:33.523Z,100428.19
2023-05-06T07:49:35.161Z,100427.63
2023-05-06T07:54:36.532Z,100431.25
2023-05-06T07:59:37.753Z,100429.16
2023-05-06T08:04:39.115Z,100427.63
2023-05-06T08:09:40.349Z,100430.78
2023-05-06T08:14:41.688Z,100429.25
2023-05-06T08:19:42.906Z,100428.63
2023-05-06T08:24:44.134Z,100434.50
2023-05-06T08:29:45.879Z,100439.00
2023-05-06T08:34:47.120Z,100436.78
2023-05-06T08:39:48.282Z,100444.97
2023-05-06T08:44:49.514Z,100448.13
2023-05-06T08:49:50.807Z,100439.81
2023-05-06T08:54:54.489Z,100441.25
2023-05-06T08:59:55.656Z,100438.56
2023-05-06T09:04:56.972Z,100430.19
2023-05-06T09:09:58.225Z,100427.22
2023-05-06T09:14:59.358Z,100422.75
2023-05-06T09:20:00.671Z,100419.81
2023-05-06T09:25:01.839Z,100423.50
2023-05-06T09:30:03.132Z,100419.13
2023-05-06T09:35:04.823Z,100416.09
2023-05-06T09:40:06.093Z,100413.84
2023-05-06T09:45:07.357Z,100404.06
2023-05-06T09:50:08.637Z,100406.75
2023-05-06T09:55:10.115Z,100393.44
2023-05-06T10:00:14.400Z,100390.84
2023-05-06T10:05:16.091Z,100383.78
2023-05-06T10:10:18.132Z,100387.66
2023-05-06T10:15:19.351Z,100376.59
2023-05-06T10:20:20.918Z,100373.38
2023-05-06T10:25:22.144Z,100378.28
2023-05-06T10:30:23.322Z,100365.31
2023-05-06T10:35:24.479Z,100365.16
2023-05-06T10:40:25.839Z,100369.13
2023-05-06T10:45:27.087Z,100364.94
2023-05-06T10:50:28.290Z,100360.16
2023-05-06T10:55:29.489Z,100344.31
2023-05-06T11:00:30.625Z,100351.28
2023-05-06T11:05:31.859Z,100347.34
2023-05-06T11:10:33.138Z,100347.97
2023-05-06T11:15:34.419Z,100335.06
2023-05-06T11:20:35.655Z,100330.47
2023-05-06T11:25:36.957Z,100323.88
2023-05-06T11:30:38.237Z,100320.28
2023-05-06T11:35:39.453Z,100318.06
2023-05-06T11:40:40.648Z,100312.03
2023-05-06T11:45:41.946Z,100307.06
2023-05-06T11:50:43.096Z,100315.09
2023-05-06T11:55:44.314Z,100305.91
2023-05-06T12:00:45.522Z,100304.69
2023-05-06T12:05:48.221Z,100303.41
2023-05-06T12:10:49.458Z,100300.78
2023-05-06T12:15:50.713Z,100301.91
2023-05-06T12:20:51.919Z,100287.47
2023-05-06T12:25:53.130Z,100293.25
2023-05-06T12:30:54.296Z,100290.56
2023-05-06T12:35:58.239Z,100293.16
2023-05-06T12:40:59.466Z,100280.09
2023-05-06T12:46:00.616Z,100277.13
2023-05-06T12:51:01.854Z,100279.06
2023-05-06T12:56:03.016Z,100282.13
2023-05-06T13:01:04.250Z,100267.91
2023-05-06T13:06:05.510Z,100280.97
2023-05-06T13:11:06.663Z,100282.84
2023-05-06T13:16:07.786Z,100275.94
2023-05-06T13:21:09.361Z,100271.34
2023-05-06T13:26:10.616Z,100269.28
2023-05-06T13:31:11.843Z,100264.19
2023-05-06T13:36:13.022Z,100265.47
2023-05-06T13:41:14.237Z,100268.31
2023-05-06T13:46:15.624Z,100264.66
2023-05-06T13:51:16.907Z,100266.34
2023-05-06T13:56:18.079Z,100264.81
2023-05-06T14:01:19.316Z,100261.06
2023-05-06T14:06:20.593Z,100264.38
2023-05-06T14:11:21.854Z,100266.97
2023-05-06T14:16:23.148Z,100264.72
2023-05-06T14:21:24.588Z,100273.19
2023-05-06T14:26:25.818Z,100285.03
2023-05-06T14:31:27.842Z,100295.78
2023-05-06T14:36:29.024Z,100304.78
2023-05-06T14:41:30.942Z,100319.75
2023-05-06T14:46:32.197Z,100328.53
2023-05-06T14:51:34.301Z,100331.19
2023-05-06T14:56:35.777Z,100335.25
2023-05-06T15:01:37.013Z,100332.03
2023-05-06T15:06:38.274Z,100337.00
2023-05-06T15:11:39.503Z,100338.09
2023-05-06T15:16:41.020Z,100336.34
2023-05-06T15:21:42.273Z,100337.69
2023-05-06T15:26:43.489Z,100341.06
2023-05-06T15:31:44.800Z,100344.38
2023-05-06T15:36:46.290Z,100342.41
2023-05-06T15:41:47.998Z,100335.59
2023-05-06T15:46:49.268Z,100334.25
2023-05-06T15:51:50.523Z,100336.34
2023-05-06T15:56:51.771Z,100328.91
2023-05-06T16:06:57.593Z,100328.47
2023-05-06T16:11:58.899Z,100326.47
2023-05-06T16:17:00.040Z,100337.34
2023-05-06T16:22:01.200Z,100329.94
2023-05-06T16:27:02.386Z,100320.50
2023-05-06T16:32:03.606Z,100319.91
2023-05-06T16:37:05.503Z,100312.06
2023-05-06T16:42:06.738Z,100304.09
2023-05-06T16:47:08.007Z,100297.00
2023-05-06T16:52:09.281Z,100291.53
2023-05-06T16:57:10.451Z,100277.78
2023-05-06T17:02:11.694Z,100285.53
2023-05-06T17:07:12.833Z,100282.78
2023-05-06T17:12:14.303Z,100282.09
2023-05-06T17:17:16.046Z,100278.53
2023-05-06T17:22:17.207Z,100260.06
2023-05-06T17:27:18.453Z,100267.28
2023-05-06T17:32:19.803Z,100272.38
2023-05-06T17:37:21.192Z,100272.38
2023-05-06T17:42:22.405Z,100275.03
2023-05-06T17:47:23.885Z,100273.38
2023-05-06T17:52:26.065Z,100262.06
2023-05-06T17:57:30.188Z,100258.88
2023-05-06T18:02:31.494Z,100262.41
2023-05-06T18:07:32.868Z,100261.75
2023-05-06T18:12:34.095Z,100259.53
2023-05-06T18:17:35.360Z,100269.91
2023-05-06T18:22:36.591Z,100273.84
2023-05-06T18:27:37.728Z,100270.19
2023-05-06T18:32:38.925Z,100272.28
2023-05-06T18:37:40.309Z,100275.13
2023-05-06T18:42:41.498Z,100276.44
2023-05-06T18:47:42.804Z,100277.72
2023-05-06T18:52:44.080Z,100279.47
2023-05-06T18:57:45.805Z,100284.84
2023-05-06T19:02:47.035Z,100283.97
2023-05-06T19:07:48.212Z,100286.81
2023-05-06T19:12:49.389Z,100296.03
2023-05-06T19:17:50.609Z,100296.88
2023-05-06T19:22:51.830Z,100289.13
2023-05-06T19:27:53.110Z,100284.47
2023-05-06T19:32:55.555Z,100296.38
2023-05-06T19:37:58.742Z,100305.28
2023-05-06T19:43:03.692Z,100295.78
2023-05-06T19:48:05.031Z,100303.59
2023-05-06T19:53:06.412Z,100303.47
2023-05-06T19:58:07.604Z,100303.19
2023-05-06T20:03:09.590Z,100307.56
2023-05-06T20:08:11.158Z,100306.66
2023-05-06T20:13:12.397Z,100300.44
2023-05-06T20:18:13.627Z,100303.09
2023-05-06T20:23:14.909Z,100297.34
2023-05-06T20:28:18.351Z,100296.44
2023-05-06T20:33:19.547Z,100292.88
2023-05-06T20:38:20.918Z,100296.81
2023-05-06T20:43:22.104Z,100299.66
2023-05-06T20:48:23.412Z,100297.78
2023-05-06T20:53:24.546Z,100299.50
2023-05-06T20:58:25.961Z,100298.41
2023-05-06T21:03:27.312Z,100302.63
2023-05-06T21:08:28.564Z,100310.56
2023-05-06T21:13:29.708Z,100314.03
2023-05-06T21:18:31.056Z,100312.19
2023-05-06T21:23:32.373Z,100314.06
2023-05-06T21:28:33.589Z,100312.97
2023-05-06T21:33:34.788Z,100302.56
2023-05-06T21:38:35.969Z,100301.94
2023-05-06T21:43:37.160Z,100294.97
2023-05-06T21:48:38.327Z,100299.19
2023-05-06T21:53:39.536Z,100287.53
2023-05-06T21:58:40.695Z,100286.31
2023-05-06T22:03:41.992Z,100275.16
2023-05-06T22:08:43.525Z,100275.94
2023-05-06T22:13:44.679Z,100275.03
2023-05-06T22:18:45.902Z,100273.47
2023-05-06T22:23:47.106Z,100271.59
2023-05-06T22:28:48.311Z,100274.09
2023-05-06T22:33:54.320Z,100282.66
2023-05-06T22:38:55.648Z,100285.88
2023-05-06T22:43:59.675Z,100284.47
2023-05-06T22:49:00.896Z,100284.00
2023-05-06T22:54:02.084Z,100284.94
2023-05-06T22:59:03.330Z,100295.06
2023-05-06T23:04:04.572Z,100297.56
2023-05-06T23:09:07.077Z,100298.31
2023-05-06T23:14:08.330Z,100290.41
2023-05-06T23:19:09.493Z,100291.34
2023-05-06T23:24:10.772Z,100287.47
2023-05-06T23:29:11.969Z,100275.34
2023-05-06T23:34:13.178Z,100288.72
2023-05-06T23:39:14.425Z,100288.88
2023-05-06T23:44:15.640Z,100293.53
2023-05-06T23:49:16.829Z,100293.53
2023-05-06T23:54:18.048Z,100305.53
2023-05-06T23:59:19.276Z,100303.78
